sensor_id;sensor_type;location;lat;lon;timestamp;temperature;humidity
19050;DHT22;9657;45.940;12.840;2023-04-01T00:01:46;15.50;70.30
19050;DHT22;9657;45.940;12.840;2023-04-01T00:04:13;15.40;70.30
19050;DHT22;9657;45.940;12.840;2023-04-01T00:06:41;15.50;70.30
19050;DHT22;9657;45.940;12.840;2023-04-01T00:09:08;15.40;70.20
19050;DHT22;9657;45.940;12.840;2023-04-01T00:11:35;15.40;70.30
19050;DHT22;9657;45.940;12.840;2023-04-01T00:14:02;15.40;70.20
19050;DHT22;9657;45.940;12.840;2023-04-01T00:16:31;15.50;70.30
19050;DHT22;9657;45.940;12.840;2023-04-01T00:18:58;15.40;70.20
19050;DHT22;9657;45.940;12.840;2023-04-01T00:21:25;15.50;70.30
19050;DHT22;9657;45.940;12.840;2023-04-01T00:23:52;15.50;70.30
19050;DHT22;9657;45.940;12.840;2023-04-01T00:26:20;15.40;70.30
19050;DHT22;9657;45.940;12.840;2023-04-01T00:28:47;15.50;70.30
19050;DHT22;9657;45.940;12.840;2023-04-01T00:31:14;15.40;70.70
19050;DHT22;9657;45.940;12.840;2023-04-01T00:33:43;15.40;70.20
19050;DHT22;9657;45.940;12.840;2023-04-01T00:36:11;15.50;70.30
19050;DHT22;9657;45.940;12.840;2023-04-01T00:38:39;15.40;70.30
19050;DHT22;9657;45.940;12.840;2023-04-01T00:41:08;15.40;70.20
19050;DHT22;9657;45.940;12.840;2023-04-01T00:43:36;15.40;70.30
19050;DHT22;9657;45.940;12.840;2023-04-01T00:46:03;15.40;70.30
19050;DHT22;9657;45.940;12.840;2023-04-01T00:48:32;15.40;70.20
19050;DHT22;9657;45.940;12.840;2023-04-01T00:51:04;15.50;70.30
19050;DHT22;9657;45.940;12.840;2023-04-01T00:53:33;15.40;70.30
19050;DHT22;9657;45.940;12.840;2023-04-01T00:56:04;15.40;70.30
19050;DHT22;9657;45.940;12.840;2023-04-01T00:58:36;15.40;70.30
19050;DHT22;9657;45.940;12.840;2023-04-01T01:03:40;15.40;70.20
19050;DHT22;9657;45.940;12.840;2023-04-01T01:06:15;15.40;70.20
19050;DHT22;9657;45.940;12.840;2023-04-01T01:09:02;15.40;70.20
19050;DHT22;9657;45.940;12.840;2023-04-01T01:11:37;15.40;70.20
19050;DHT22;9657;45.940;12.840;2023-04-01T01:14:17;15.40;70.20
19050;DHT22;9657;45.940;12.840;2023-04-01T01:16:51;15.40;70.20
19050;DHT22;9657;45.940;12.840;2023-04-01T01:19:40;15.40;70.20
19050;DHT22;9657;45.940;12.840;2023-04-01T01:22:33;15.40;70.20
19050;DHT22;9657;45.940;12.840;2023-04-01T01:25:18;15.40;70.20
19050;DHT22;9657;45.940;12.840;2023-04-01T01:27:54;15.40;70.20
19050;DHT22;9657;45.940;12.840;2023-04-01T01:30:34;15.40;70.20
19050;DHT22;9657;45.940;12.840;2023-04-01T01:33:12;15.40;70.20
19050;DHT22;9657;45.940;12.840;2023-04-01T01:35:44;15.40;70.20
19050;DHT22;9657;45.940;12.840;2023-04-01T01:38:15;15.40;70.20
19050;DHT22;9657;45.940;12.840;2023-04-01T01:40:45;15.40;70.20
19050;DHT22;9657;45.940;12.840;2023-04-01T01:43:15;15.40;70.20
19050;DHT22;9657;45.940;12.840;2023-04-01T01:45:47;15.40;70.20
19050;DHT22;9657;45.940;12.840;2023-04-01T01:48:16;15.40;70.20
19050;DHT22;9657;45.940;12.840;2023-04-01T01:50:46;15.40;70.20
19050;DHT22;9657;45.940;12.840;2023-04-01T01:53:14;15.40;70.10
19050;DHT22;9657;45.940;12.840;2023-04-01T01:55:43;15.40;70.10
19050;DHT22;9657;45.940;12.840;2023-04-01T01:58:14;15.40;70.10
19050;DHT22;9657;45.940;12.840;2023-04-01T02:00:45;15.40;70.10
19050;DHT22;9657;45.940;12.840;2023-04-01T02:03:13;15.40;70.10
19050;DHT22;9657;45.940;12.840;2023-04-01T02:05:42;15.40;70.10
19050;DHT22;9657;45.940;12.840;2023-04-01T02:08:13;15.40;70.10
19050;DHT22;9657;45.940;12.840;2023-04-01T02:10:45;15.40;70.10
19050;DHT22;9657;45.940;12.840;2023-04-01T02:13:16;15.40;70.10
19050;DHT22;9657;45.940;12.840;2023-04-01T02:15:48;15.40;70.10
19050;DHT22;9657;45.940;12.840;2023-04-01T02:18:17;15.40;70.10
19050;DHT22;9657;45.940;12.840;2023-04-01T02:20:45;15.40;70.10
19050;DHT22;9657;45.940;12.840;2023-04-01T02:23:14;15.40;70.10
19050;DHT22;9657;45.940;12.840;2023-04-01T02:25:42;15.40;70.10
19050;DHT22;9657;45.940;12.840;2023-04-01T02:28:10;15.30;70.00
19050;DHT22;9657;45.940;12.840;2023-04-01T02:30:41;15.40;70.00
19050;DHT22;9657;45.940;12.840;2023-04-01T02:33:09;15.40;70.00
19050;DHT22;9657;45.940;12.840;2023-04-01T02:35:37;15.40;70.00
19050;DHT22;9657;45.940;12.840;2023-04-01T02:38:05;15.30;69.90
19050;DHT22;9657;45.940;12.840;2023-04-01T02:40:43;15.40;70.10
19050;DHT22;9657;45.940;12.840;2023-04-01T02:43:11;15.30;69.90
19050;DHT22;9657;45.940;12.840;2023-04-01T02:45:38;15.40;70.00
19050;DHT22;9657;45.940;12.840;2023-04-01T02:48:05;15.30;69.80
19050;DHT22;9657;45.940;12.840;2023-04-01T02:50:32;15.40;70.00
19050;DHT22;9657;45.940;12.840;2023-04-01T02:53:00;15.30;69.80
19050;DHT22;9657;45.940;12.840;2023-04-01T02:55:28;15.30;69.80
19050;DHT22;9657;45.940;12.840;2023-04-01T02:57:57;15.30;69.80
19050;DHT22;9657;45.940;12.840;2023-04-01T03:00:24;15.40;69.80
19050;DHT22;9657;45.940;12.840;2023-04-01T03:02:51;15.30;69.80
19050;DHT22;9657;45.940;12.840;2023-04-01T03:05:18;15.30;69.80
19050;DHT22;9657;45.940;12.840;2023-04-01T03:07:45;15.30;70.60
19050;DHT22;9657;45.940;12.840;2023-04-01T03:10:12;15.30;69.80
19050;DHT22;9657;45.940;12.840;2023-04-01T03:12:40;15.30;69.80
19050;DHT22;9657;45.940;12.840;2023-04-01T03:15:10;15.30;69.80
19050;DHT22;9657;45.940;12.840;2023-04-01T03:17:39;15.30;69.80
19050;DHT22;9657;45.940;12.840;2023-04-01T03:20:07;15.30;69.80
19050;DHT22;9657;45.940;12.840;2023-04-01T03:22:36;15.30;69.80
19050;DHT22;9657;45.940;12.840;2023-04-01T03:25:05;15.30;69.80
19050;DHT22;9657;45.940;12.840;2023-04-01T03:27:33;15.30;69.80
19050;DHT22;9657;45.940;12.840;2023-04-01T03:30:00;15.30;69.80
19050;DHT22;9657;45.940;12.840;2023-04-01T03:32:29;15.30;69.80
19050;DHT22;9657;45.940;12.840;2023-04-01T03:34:56;15.30;69.90
19050;DHT22;9657;45.940;12.840;2023-04-01T03:37:23;15.30;69.90
19050;DHT22;9657;45.940;12.840;2023-04-01T03:39:50;15.30;69.90
19050;DHT22;9657;45.940;12.840;2023-04-01T03:42:17;15.30;69.80
19050;DHT22;9657;45.940;12.840;2023-04-01T03:44:44;15.30;69.80
19050;DHT22;9657;45.940;12.840;2023-04-01T03:47:11;15.30;70.00
19050;DHT22;9657;45.940;12.840;2023-04-01T03:49:40;15.30;69.90
19050;DHT22;9657;45.940;12.840;2023-04-01T03:52:09;15.30;69.90
19050;DHT22;9657;45.940;12.840;2023-04-01T03:54:37;15.30;70.00
19050;DHT22;9657;45.940;12.840;2023-04-01T03:57:04;15.30;70.00
19050;DHT22;9657;45.940;12.840;2023-04-01T03:59:31;15.30;70.00
19050;DHT22;9657;45.940;12.840;2023-04-01T04:01:58;15.30;70.00
19050;DHT22;9657;45.940;12.840;2023-04-01T04:04:26;15.30;70.00
19050;DHT22;9657;45.940;12.840;2023-04-01T04:06:55;15.30;70.00
19050;DHT22;9657;45.940;12.840;2023-04-01T04:09:22;15.30;70.10
19050;DHT22;9657;45.940;12.840;2023-04-01T04:11:50;15.30;70.00
19050;DHT22;9657;45.940;12.840;2023-04-01T04:14:17;15.30;70.10
19050;DHT22;9657;45.940;12.840;2023-04-01T04:16:44;15.30;70.10
19050;DHT22;9657;45.940;12.840;2023-04-01T04:19:11;15.30;70.10
19050;DHT22;9657;45.940;12.840;2023-04-01T04:21:39;15.30;70.10
19050;DHT22;9657;45.940;12.840;2023-04-01T04:24:08;15.30;70.10
19050;DHT22;9657;45.940;12.840;2023-04-01T04:26:35;15.30;70.00
19050;DHT22;9657;45.940;12.840;2023-04-01T04:29:03;15.30;70.10
19050;DHT22;9657;45.940;12.840;2023-04-01T04:31:30;15.30;70.10
19050;DHT22;9657;45.940;12.840;2023-04-01T04:33:58;15.30;70.10
19050;DHT22;9657;45.940;12.840;2023-04-01T04:36:26;15.30;70.10
19050;DHT22;9657;45.940;12.840;2023-04-01T04:38:53;15.30;70.10
19050;DHT22;9657;45.940;12.840;2023-04-01T04:41:21;15.30;70.10
19050;DHT22;9657;45.940;12.840;2023-04-01T04:43:53;15.30;70.10
19050;DHT22;9657;45.940;12.840;2023-04-01T04:46:21;15.30;70.10
19050;DHT22;9657;45.940;12.840;2023-04-01T04:48:48;15.30;70.10
19050;DHT22;9657;45.940;12.840;2023-04-01T04:51:17;15.30;70.00
19050;DHT22;9657;45.940;12.840;2023-04-01T04:53:46;15.30;70.10
19050;DHT22;9657;45.940;12.840;2023-04-01T04:56:16;15.30;70.00
19050;DHT22;9657;45.940;12.840;2023-04-01T04:58:45;15.20;70.00
19050;DHT22;9657;45.940;12.840;2023-04-01T05:01:13;15.20;70.00
19050;DHT22;9657;45.940;12.840;2023-04-01T05:03:41;15.20;70.00
19050;DHT22;9657;45.940;12.840;2023-04-01T05:06:09;15.20;69.90
19050;DHT22;9657;45.940;12.840;2023-04-01T05:08:36;15.20;69.90
19050;DHT22;9657;45.940;12.840;2023-04-01T05:11:07;15.20;69.90
19050;DHT22;9657;45.940;12.840;2023-04-01T05:13:35;15.30;70.00
19050;DHT22;9657;45.940;12.840;2023-04-01T05:16:07;15.20;69.90
19050;DHT22;9657;45.940;12.840;2023-04-01T05:18:34;15.20;69.80
19050;DHT22;9657;45.940;12.840;2023-04-01T05:21:01;15.20;69.80
19050;DHT22;9657;45.940;12.840;2023-04-01T05:23:28;15.20;69.80
19050;DHT22;9657;45.940;12.840;2023-04-01T05:25:55;15.20;69.80
19050;DHT22;9657;45.940;12.840;2023-04-01T05:28:23;15.20;69.80
19050;DHT22;9657;45.940;12.840;2023-04-01T05:30:50;15.20;69.80
19050;DHT22;9657;45.940;12.840;2023-04-01T05:33:18;15.20;69.80
19050;DHT22;9657;45.940;12.840;2023-04-01T05:35:45;15.20;69.80
19050;DHT22;9657;45.940;12.840;2023-04-01T05:38:12;15.20;69.80
19050;DHT22;9657;45.940;12.840;2023-04-01T05:40:39;15.20;69.80
19050;DHT22;9657;45.940;12.840;2023-04-01T05:43:06;15.20;69.80
19050;DHT22;9657;45.940;12.840;2023-04-01T05:45:34;15.20;69.80
19050;DHT22;9657;45.940;12.840;2023-04-01T05:48:01;15.20;69.80
19050;DHT22;9657;45.940;12.840;2023-04-01T05:50:29;15.20;69.80
19050;DHT22;9657;45.940;12.840;2023-04-01T05:52:57;15.20;69.70
19050;DHT22;9657;45.940;12.840;2023-04-01T05:55:24;15.20;69.80
19050;DHT22;9657;45.940;12.840;2023-04-01T05:57:51;15.20;69.70
19050;DHT22;9657;45.940;12.840;2023-04-01T06:00:18;15.20;69.70
19050;DHT22;9657;45.940;12.840;2023-04-01T06:02:45;15.20;69.70
19050;DHT22;9657;45.940;12.840;2023-04-01T06:05:17;15.20;69.80
19050;DHT22;9657;45.940;12.840;2023-04-01T06:07:46;15.20;69.70
19050;DHT22;9657;45.940;12.840;2023-04-01T06:10:15;15.20;69.70
19050;DHT22;9657;45.940;12.840;2023-04-01T06:12:55;15.20;69.70
19050;DHT22;9657;45.940;12.840;2023-04-01T06:15:30;15.20;69.70
19050;DHT22;9657;45.940;12.840;2023-04-01T06:21:00;15.20;69.80
19050;DHT22;9657;45.940;12.840;2023-04-01T06:23:42;15.20;69.90
19050;DHT22;9657;45.940;12.840;2023-04-01T06:26:20;15.20;69.90
19050;DHT22;9657;45.940;12.840;2023-04-01T06:29:16;15.20;69.90
19050;DHT22;9657;45.940;12.840;2023-04-01T06:32:18;15.20;70.00
19050;DHT22;9657;45.940;12.840;2023-04-01T06:34:58;15.20;70.00
19050;DHT22;9657;45.940;12.840;2023-04-01T06:37:46;15.20;70.00
19050;DHT22;9657;45.940;12.840;2023-04-01T06:40:41;15.20;70.00
19050;DHT22;9657;45.940;12.840;2023-04-01T06:43:16;15.20;70.00
19050;DHT22;9657;45.940;12.840;2023-04-01T06:45:54;15.20;70.10
19050;DHT22;9657;45.940;12.840;2023-04-01T06:48:34;15.20;70.10
19050;DHT22;9657;45.940;12.840;2023-04-01T06:51:16;15.20;70.10
19050;DHT22;9657;45.940;12.840;2023-04-01T06:53:51;15.20;70.10
19050;DHT22;9657;45.940;12.840;2023-04-01T06:56:25;15.20;70.00
19050;DHT22;9657;45.940;12.840;2023-04-01T06:58:55;15.20;70.00
19050;DHT22;9657;45.940;12.840;2023-04-01T07:01:27;15.20;70.00
19050;DHT22;9657;45.940;12.840;2023-04-01T07:03:58;15.20;70.00
19050;DHT22;9657;45.940;12.840;2023-04-01T07:06:29;15.20;69.90
19050;DHT22;9657;45.940;12.840;2023-04-01T07:09:00;15.20;69.90
19050;DHT22;9657;45.940;12.840;2023-04-01T07:11:32;15.20;69.80
19050;DHT22;9657;45.940;12.840;2023-04-01T07:14:03;15.20;69.80
19050;DHT22;9657;45.940;12.840;2023-04-01T07:16:36;15.20;69.80
19050;DHT22;9657;45.940;12.840;2023-04-01T07:19:08;15.20;69.80
19050;DHT22;9657;45.940;12.840;2023-04-01T07:21:43;15.20;69.80
19050;DHT22;9657;45.940;12.840;2023-04-01T07:24:16;15.20;69.70
19050;DHT22;9657;45.940;12.840;2023-04-01T07:26:46;15.20;69.70
19050;DHT22;9657;45.940;12.840;2023-04-01T07:29:14;15.20;69.70
19050;DHT22;9657;45.940;12.840;2023-04-01T07:34:35;15.20;69.70
19050;DHT22;9657;45.940;12.840;2023-04-01T07:37:11;15.20;69.70
19050;DHT22;9657;45.940;12.840;2023-04-01T07:39:45;15.20;69.60
19050;DHT22;9657;45.940;12.840;2023-04-01T07:42:22;15.20;69.60
19050;DHT22;9657;45.940;12.840;2023-04-01T07:44:57;15.20;69.60
19050;DHT22;9657;45.940;12.840;2023-04-01T07:47:43;15.20;69.50
19050;DHT22;9657;45.940;12.840;2023-04-01T07:50:19;15.20;69.60
19050;DHT22;9657;45.940;12.840;2023-04-01T07:52:54;15.20;69.50
19050;DHT22;9657;45.940;12.840;2023-04-01T07:55:32;15.20;69.50
19050;DHT22;9657;45.940;12.840;2023-04-01T07:58:06;15.20;69.50
19050;DHT22;9657;45.940;12.840;2023-04-01T08:00:42;15.20;69.50
19050;DHT22;9657;45.940;12.840;2023-04-01T08:03:26;15.20;69.40
19050;DHT22;9657;45.940;12.840;2023-04-01T08:05:57;15.30;69.50
19050;DHT22;9657;45.940;12.840;2023-04-01T08:08:34;15.20;69.30
19050;DHT22;9657;45.940;12.840;2023-04-01T08:11:10;15.30;69.40
19050;DHT22;9657;45.940;12.840;2023-04-01T08:13:46;15.30;69.40
19050;DHT22;9657;45.940;12.840;2023-04-01T08:16:22;15.30;69.30
19050;DHT22;9657;45.940;12.840;2023-04-01T08:18:57;15.30;69.30
19050;DHT22;9657;45.940;12.840;2023-04-01T08:21:28;15.30;69.30
19050;DHT22;9657;45.940;12.840;2023-04-01T08:23:58;15.30;69.30
19050;DHT22;9657;45.940;12.840;2023-04-01T08:26:35;15.30;69.20
19050;DHT22;9657;45.940;12.840;2023-04-01T08:29:10;15.30;69.20
19050;DHT22;9657;45.940;12.840;2023-04-01T08:31:43;15.30;69.20
19050;DHT22;9657;45.940;12.840;2023-04-01T08:34:15;15.30;69.20
19050;DHT22;9657;45.940;12.840;2023-04-01T08:36:45;15.30;69.20
19050;DHT22;9657;45.940;12.840;2023-04-01T08:39:18;15.30;69.10
19050;DHT22;9657;45.940;12.840;2023-04-01T08:42:12;15.30;69.10
19050;DHT22;9657;45.940;12.840;2023-04-01T08:48:07;15.30;69.10
19050;DHT22;9657;45.940;12.840;2023-04-01T08:51:00;15.30;69.10
19050;DHT22;9657;45.940;12.840;2023-04-01T08:53:44;15.40;69.10
19050;DHT22;9657;45.940;12.840;2023-04-01T08:56:18;15.30;69.00
19050;DHT22;9657;45.940;12.840;2023-04-01T09:02:13;15.40;69.00
19050;DHT22;9657;45.940;12.840;2023-04-01T09:07:55;15.40;69.00
19050;DHT22;9657;45.940;12.840;2023-04-01T09:11:00;15.40;68.90
19050;DHT22;9657;45.940;12.840;2023-04-01T09:13:56;15.40;68.90
19050;DHT22;9657;45.940;12.840;2023-04-01T09:16:42;15.40;68.80
19050;DHT22;9657;45.940;12.840;2023-04-01T09:19:21;15.40;68.80
19050;DHT22;9657;45.940;12.840;2023-04-01T09:22:13;15.40;68.70
19050;DHT22;9657;45.940;12.840;2023-04-01T09:25:12;15.40;68.70
19050;DHT22;9657;45.940;12.840;2023-04-01T09:27:45;15.40;68.80
19050;DHT22;9657;45.940;12.840;2023-04-01T09:30:32;15.50;68.80
19050;DHT22;9657;45.940;12.840;2023-04-01T09:33:43;15.40;68.80
19050;DHT22;9657;45.940;12.840;2023-04-01T09:36:23;15.50;68.80
19050;DHT22;9657;45.940;12.840;2023-04-01T09:39:02;15.40;68.80
19050;DHT22;9657;45.940;12.840;2023-04-01T09:41:32;15.50;68.80
19050;DHT22;9657;45.940;12.840;2023-04-01T09:44:03;15.50;68.80
19050;DHT22;9657;45.940;12.840;2023-04-01T09:46:42;15.50;68.70
19050;DHT22;9657;45.940;12.840;2023-04-01T09:49:42;15.50;68.70
19050;DHT22;9657;45.940;12.840;2023-04-01T09:52:24;15.50;68.80
19050;DHT22;9657;45.940;12.840;2023-04-01T09:55:19;15.50;68.80
19050;DHT22;9657;45.940;12.840;2023-04-01T09:58:22;15.60;68.90
19050;DHT22;9657;45.940;12.840;2023-04-01T10:01:33;15.60;68.90
19050;DHT22;9657;45.940;12.840;2023-04-01T10:04:30;15.60;69.30
19050;DHT22;9657;45.940;12.840;2023-04-01T10:07:38;15.60;68.80
19050;DHT22;9657;45.940;12.840;2023-04-01T10:16:50;15.60;68.60
19050;DHT22;9657;45.940;12.840;2023-04-01T10:22:56;15.70;68.50
19050;DHT22;9657;45.940;12.840;2023-04-01T10:28:43;15.70;68.50
19050;DHT22;9657;45.940;12.840;2023-04-01T10:31:46;15.70;68.40
19050;DHT22;9657;45.940;12.840;2023-04-01T10:34:44;15.70;68.50
19050;DHT22;9657;45.940;12.840;2023-04-01T10:37:29;15.70;68.50
19050;DHT22;9657;45.940;12.840;2023-04-01T10:40:29;15.70;68.50
19050;DHT22;9657;45.940;12.840;2023-04-01T10:46:28;15.80;68.40
19050;DHT22;9657;45.940;12.840;2023-04-01T10:49:29;15.80;68.30
19050;DHT22;9657;45.940;12.840;2023-04-01T10:52:36;15.80;68.30
19050;DHT22;9657;45.940;12.840;2023-04-01T10:55:53;15.80;68.30
19050;DHT22;9657;45.940;12.840;2023-04-01T11:01:51;15.80;68.30
19050;DHT22;9657;45.940;12.840;2023-04-01T11:04:57;15.80;68.30
19050;DHT22;9657;45.940;12.840;2023-04-01T11:08:11;15.80;68.30
19050;DHT22;9657;45.940;12.840;2023-04-01T11:23:43;15.80;67.80
19050;DHT22;9657;45.940;12.840;2023-04-01T11:26:26;15.80;67.80
19050;DHT22;9657;45.940;12.840;2023-04-01T11:29:11;15.80;67.70
19050;DHT22;9657;45.940;12.840;2023-04-01T11:31:50;15.80;67.70
19050;DHT22;9657;45.940;12.840;2023-04-01T11:34:37;15.80;67.60
19050;DHT22;9657;45.940;12.840;2023-04-01T11:37:15;15.80;67.60
19050;DHT22;9657;45.940;12.840;2023-04-01T11:39:52;15.80;67.60
19050;DHT22;9657;45.940;12.840;2023-04-01T11:42:30;15.80;67.60
19050;DHT22;9657;45.940;12.840;2023-04-01T11:45:12;15.80;67.50
19050;DHT22;9657;45.940;12.840;2023-04-01T11:47:58;15.90;67.60
19050;DHT22;9657;45.940;12.840;2023-04-01T11:50:38;15.90;67.60
19050;DHT22;9657;45.940;12.840;2023-04-01T11:53:19;15.90;67.60
19050;DHT22;9657;45.940;12.840;2023-04-01T11:56:03;15.90;67.50
19050;DHT22;9657;45.940;12.840;2023-04-01T11:58:45;15.90;67.60
19050;DHT22;9657;45.940;12.840;2023-04-01T12:01:22;15.90;67.50
19050;DHT22;9657;45.940;12.840;2023-04-01T12:04:06;15.90;67.50
19050;DHT22;9657;45.940;12.840;2023-04-01T12:06:44;15.90;67.50
19050;DHT22;9657;45.940;12.840;2023-04-01T12:09:19;15.90;67.60
19050;DHT22;9657;45.940;12.840;2023-04-01T12:11:54;15.90;67.50
19050;DHT22;9657;45.940;12.840;2023-04-01T12:14:32;15.90;67.60
19050;DHT22;9657;45.940;12.840;2023-04-01T12:17:09;15.90;67.50
19050;DHT22;9657;45.940;12.840;2023-04-01T12:19:44;15.90;67.60
19050;DHT22;9657;45.940;12.840;2023-04-01T12:22:28;15.90;67.60
19050;DHT22;9657;45.940;12.840;2023-04-01T12:25:07;15.90;67.50
19050;DHT22;9657;45.940;12.840;2023-04-01T12:27:45;15.90;67.50
19050;DHT22;9657;45.940;12.840;2023-04-01T12:30:38;15.90;67.60
19050;DHT22;9657;45.940;12.840;2023-04-01T12:36:23;15.90;67.50
19050;DHT22;9657;45.940;12.840;2023-04-01T12:39:11;16.00;67.60
19050;DHT22;9657;45.940;12.840;2023-04-01T12:41:47;15.90;67.50
19050;DHT22;9657;45.940;12.840;2023-04-01T12:44:33;15.90;67.50
19050;DHT22;9657;45.940;12.840;2023-04-01T12:47:45;16.00;67.50
19050;DHT22;9657;45.940;12.840;2023-04-01T12:50:31;16.00;67.60
19050;DHT22;9657;45.940;12.840;2023-04-01T12:53:25;16.00;67.50
19050;DHT22;9657;45.940;12.840;2023-04-01T12:55:59;16.00;67.50
19050;DHT22;9657;45.940;12.840;2023-04-01T12:59:10;16.00;67.50
19050;DHT22;9657;45.940;12.840;2023-04-01T13:01:59;16.00;67.60
19050;DHT22;9657;45.940;12.840;2023-04-01T13:05:11;16.00;67.50
19050;DHT22;9657;45.940;12.840;2023-04-01T13:07:56;16.00;67.50
19050;DHT22;9657;45.940;12.840;2023-04-01T13:10:36;16.00;67.50
19050;DHT22;9657;45.940;12.840;2023-04-01T13:13:23;16.00;67.50
19050;DHT22;9657;45.940;12.840;2023-04-01T13:15:52;16.00;67.50
19050;DHT22;9657;45.940;12.840;2023-04-01T13:18:28;16.00;67.40
19050;DHT22;9657;45.940;12.840;2023-04-01T13:21:05;16.00;67.40
19050;DHT22;9657;45.940;12.840;2023-04-01T13:23:43;16.10;67.50
19050;DHT22;9657;45.940;12.840;2023-04-01T13:26:18;16.00;67.40
19050;DHT22;9657;45.940;12.840;2023-04-01T13:28:53;16.10;67.50
19050;DHT22;9657;45.940;12.840;2023-04-01T13:31:33;16.10;67.40
19050;DHT22;9657;45.940;12.840;2023-04-01T13:34:17;16.10;67.50
19050;DHT22;9657;45.940;12.840;2023-04-01T13:36:58;16.10;67.40
19050;DHT22;9657;45.940;12.840;2023-04-01T13:39:45;16.10;67.40
19050;DHT22;9657;45.940;12.840;2023-04-01T13:42:21;16.10;67.40
19050;DHT22;9657;45.940;12.840;2023-04-01T13:44:55;16.10;67.30
19050;DHT22;9657;45.940;12.840;2023-04-01T13:48:17;16.10;67.40
19050;DHT22;9657;45.940;12.840;2023-04-01T13:51:08;16.10;67.40
19050;DHT22;9657;45.940;12.840;2023-04-01T13:53:58;16.10;67.30
19050;DHT22;9657;45.940;12.840;2023-04-01T13:56:34;16.10;67.30
19050;DHT22;9657;45.940;12.840;2023-04-01T13:59:19;16.10;67.30
19050;DHT22;9657;45.940;12.840;2023-04-01T14:01:57;16.20;67.40
19050;DHT22;9657;45.940;12.840;2023-04-01T14:04:39;16.20;67.40
19050;DHT22;9657;45.940;12.840;2023-04-01T14:07:22;16.20;67.50
19050;DHT22;9657;45.940;12.840;2023-04-01T14:10:02;16.20;67.40
19050;DHT22;9657;45.940;12.840;2023-04-01T14:12:39;16.20;67.50
19050;DHT22;9657;45.940;12.840;2023-04-01T14:15:31;16.20;67.30
19050;DHT22;9657;45.940;12.840;2023-04-01T14:18:17;16.20;67.20
19050;DHT22;9657;45.940;12.840;2023-04-01T14:20:53;16.20;67.20
19050;DHT22;9657;45.940;12.840;2023-04-01T14:23:50;16.20;67.10
19050;DHT22;9657;45.940;12.840;2023-04-01T14:26:50;16.20;67.20
19050;DHT22;9657;45.940;12.840;2023-04-01T14:29:27;16.20;67.10
19050;DHT22;9657;45.940;12.840;2023-04-01T14:32:07;16.20;67.10
19050;DHT22;9657;45.940;12.840;2023-04-01T14:34:53;16.20;67.10
19050;DHT22;9657;45.940;12.840;2023-04-01T14:37:42;16.20;67.00
19050;DHT22;9657;45.940;12.840;2023-04-01T14:40:22;16.20;67.00
19050;DHT22;9657;45.940;12.840;2023-04-01T14:43:19;16.20;66.90
19050;DHT22;9657;45.940;12.840;2023-04-01T14:48:57;16.20;66.80
19050;DHT22;9657;45.940;12.840;2023-04-01T14:51:30;16.30;66.90
19050;DHT22;9657;45.940;12.840;2023-04-01T14:54:08;16.20;66.80
19050;DHT22;9657;45.940;12.840;2023-04-01T14:56:41;16.30;66.90
19050;DHT22;9657;45.940;12.840;2023-04-01T14:59:14;16.30;66.80
19050;DHT22;9657;45.940;12.840;2023-04-01T15:01:47;16.30;66.90
19050;DHT22;9657;45.940;12.840;2023-04-01T15:07:42;16.20;67.60
19050;DHT22;9657;45.940;12.840;2023-04-01T15:13:13;16.30;66.80
19050;DHT22;9657;45.940;12.840;2023-04-01T15:15:54;16.30;66.80
19050;DHT22;9657;45.940;12.840;2023-04-01T15:18:34;16.30;66.70
19050;DHT22;9657;45.940;12.840;2023-04-01T15:21:23;16.30;66.70
19050;DHT22;9657;45.940;12.840;2023-04-01T15:23:59;16.30;66.70
19050;DHT22;9657;45.940;12.840;2023-04-01T15:26:46;16.20;66.70
19050;DHT22;9657;45.940;12.840;2023-04-01T15:32:17;16.20;66.60
19050;DHT22;9657;45.940;12.840;2023-04-01T15:34:50;16.30;66.70
19050;DHT22;9657;45.940;12.840;2023-04-01T15:37:26;16.30;66.70
19050;DHT22;9657;45.940;12.840;2023-04-01T15:40:00;16.30;66.70
19050;DHT22;9657;45.940;12.840;2023-04-01T15:42:43;16.20;66.70
19050;DHT22;9657;45.940;12.840;2023-04-01T15:45:17;16.30;66.70
19050;DHT22;9657;45.940;12.840;2023-04-01T15:47:57;16.20;66.70
19050;DHT22;9657;45.940;12.840;2023-04-01T15:50:35;16.20;66.70
19050;DHT22;9657;45.940;12.840;2023-04-01T15:53:26;16.30;66.80
19050;DHT22;9657;45.940;12.840;2023-04-01T15:55:57;16.30;66.80
19050;DHT22;9657;45.940;12.840;2023-04-01T15:58:42;16.20;66.80
19050;DHT22;9657;45.940;12.840;2023-04-01T16:01:21;16.20;66.80
19050;DHT22;9657;45.940;12.840;2023-04-01T16:03:59;16.20;66.80
19050;DHT22;9657;45.940;12.840;2023-04-01T16:06:53;16.20;66.80
19050;DHT22;9657;45.940;12.840;2023-04-01T16:09:46;16.20;66.80
19050;DHT22;9657;45.940;12.840;2023-04-01T16:12:18;16.20;66.80
19050;DHT22;9657;45.940;12.840;2023-04-01T16:14:58;16.30;67.00
19050;DHT22;9657;45.940;12.840;2023-04-01T16:17:44;16.20;67.00
19050;DHT22;9657;45.940;12.840;2023-04-01T16:20:19;16.20;66.90
19050;DHT22;9657;45.940;12.840;2023-04-01T16:22:53;16.30;67.00
19050;DHT22;9657;45.940;12.840;2023-04-01T16:25:31;16.30;67.10
19050;DHT22;9657;45.940;12.840;2023-04-01T16:28:09;16.30;67.10
19050;DHT22;9657;45.940;12.840;2023-04-01T16:30:42;16.30;67.10
19050;DHT22;9657;45.940;12.840;2023-04-01T16:33:14;16.30;67.10
19050;DHT22;9657;45.940;12.840;2023-04-01T16:35:47;16.30;67.90
19050;DHT22;9657;45.940;12.840;2023-04-01T16:38:20;16.30;67.10
19050;DHT22;9657;45.940;12.840;2023-04-01T16:40:58;16.30;67.10
19050;DHT22;9657;45.940;12.840;2023-04-01T16:43:30;16.30;67.10
19050;DHT22;9657;45.940;12.840;2023-04-01T16:46:20;16.30;67.10
19050;DHT22;9657;45.940;12.840;2023-04-01T16:49:03;16.30;67.10
19050;DHT22;9657;45.940;12.840;2023-04-01T16:51:40;16.30;67.10
19050;DHT22;9657;45.940;12.840;2023-04-01T16:54:17;16.30;67.20
19050;DHT22;9657;45.940;12.840;2023-04-01T16:56:49;16.30;67.20
19050;DHT22;9657;45.940;12.840;2023-04-01T16:59:21;16.30;67.30
19050;DHT22;9657;45.940;12.840;2023-04-01T17:01:53;16.30;67.30
19050;DHT22;9657;45.940;12.840;2023-04-01T17:04:30;16.30;67.30
19050;DHT22;9657;45.940;12.840;2023-04-01T17:07:11;16.30;67.30
19050;DHT22;9657;45.940;12.840;2023-04-01T17:12:50;16.30;67.50
19050;DHT22;9657;45.940;12.840;2023-04-01T17:15:26;16.30;67.60
19050;DHT22;9657;45.940;12.840;2023-04-01T17:17:59;16.30;67.70
19050;DHT22;9657;45.940;12.840;2023-04-01T17:20:36;16.30;67.80
19050;DHT22;9657;45.940;12.840;2023-04-01T17:23:14;16.30;67.80
19050;DHT22;9657;45.940;12.840;2023-04-01T17:25:52;16.30;68.00
19050;DHT22;9657;45.940;12.840;2023-04-01T17:28:30;16.30;68.30
19050;DHT22;9657;45.940;12.840;2023-04-01T17:31:06;16.30;68.30
19050;DHT22;9657;45.940;12.840;2023-04-01T17:33:46;16.30;68.40
19050;DHT22;9657;45.940;12.840;2023-04-01T17:36:27;16.30;68.50
19050;DHT22;9657;45.940;12.840;2023-04-01T17:39:12;16.30;68.50